Time,TemperatureF,DewpointF,PressureIn,WindDirection,WindDirectionDegrees,WindSpeedMPH,WindSpeedGustMPH,Humidity,HourlyPrecipIn,Conditions,Clouds,dailyrainin,SoftwareType,DateUTC
2013-03-22 00:00:00,22.8,19.8,29.05,SSE,157,0.0,4.0,88,0.00,,,0.00,Weather View 32 v70,2013-03-22 04:00:00,
2013-03-22 00:01:00,22.7,19.4,29.05,SSE,157,0.0,4.0,87,0.00,,,0.00,Weather View 32 v70,2013-03-22 04:01:00,
2013-03-22 00:06:00,22.1,18.3,29.05,SSE,157,1.0,4.0,85,0.00,,,0.00,Weather View 32 v70,2013-03-22 04:06:00,
2013-03-22 00:11:00,21.8,18.0,29.05,SSE,157,0.0,4.0,85,0.00,,,0.00,Weather View 32 v70,2013-03-22 04:11:00,
2013-03-22 00:16:00,21.8,18.5,29.05,SSE,157,2.0,4.0,87,0.00,,,0.00,Weather View 32 v70,2013-03-22 04:16:00,
2013-03-22 00:21:00,21.4,17.6,29.05,SSE,157,2.0,4.0,85,0.00,,,0.00,Weather View 32 v70,2013-03-22 04:21:00,
2013-03-22 00:26:00,21.0,17.2,29.05,South,180,2.0,4.0,85,0.00,,,0.00,Weather View 32 v70,2013-03-22 04:26:00,
2013-03-22 00:31:00,20.9,17.4,29.05,South,180,0.0,4.0,86,0.00,,,0.00,Weather View 32 v70,2013-03-22 04:31:00,
2013-03-22 00:36:00,21.0,17.7,29.05,South,180,0.0,4.0,87,0.00,,,0.00,Weather View 32 v70,2013-03-22 04:36:00,
2013-03-22 00:41:00,21.2,17.4,29.05,SSE,157,0.0,4.0,85,0.00,,,0.00,Weather View 32 v70,2013-03-22 04:41:00,
2013-03-22 00:46:00,20.8,17.3,29.05,SSE,157,1.0,4.0,86,0.00,,,0.00,Weather View 32 v70,2013-03-22 04:46:00,
2013-03-22 00:51:00,20.7,18.0,29.06,SSE,157,1.0,4.0,89,0.00,,,0.00,Weather View 32 v70,2013-03-22 04:51:00,
2013-03-22 00:56:00,20.8,18.3,29.06,SSE,157,1.0,4.0,90,0.00,,,0.00,Weather View 32 v70,2013-03-22 04:56:00,
2013-03-22 01:01:00,21.0,18.5,29.05,SSE,157,1.0,3.0,90,0.00,,,0.00,Weather View 32 v70,2013-03-22 05:01:00,
2013-03-22 01:06:00,21.0,18.5,29.05,SSE,157,2.0,3.0,90,0.00,,,0.00,Weather View 32 v70,2013-03-22 05:06:00,
2013-03-22 01:11:00,20.4,17.4,29.05,SSE,157,3.0,4.0,88,0.00,,,0.00,Weather View 32 v70,2013-03-22 05:11:00,
2013-03-22 01:16:00,20.0,17.3,29.05,SSE,157,3.0,4.0,89,0.00,,,0.00,Weather View 32 v70,2013-03-22 05:16:00,
2013-03-22 01:21:00,20.1,17.9,29.05,SSE,157,1.0,4.0,91,0.00,,,0.00,Weather View 32 v70,2013-03-22 05:21:00,
2013-03-22 01:26:00,20.2,18.8,29.05,SSE,157,1.0,4.0,94,0.00,,,0.00,Weather View 32 v70,2013-03-22 05:26:00,
2013-03-22 01:31:00,20.0,17.5,29.05,SSE,157,1.0,4.0,90,0.00,,,0.00,Weather View 32 v70,2013-03-22 05:31:00,
2013-03-22 01:36:00,20.2,18.2,29.05,SSE,157,2.0,4.0,92,0.00,,,0.00,Weather View 32 v70,2013-03-22 05:36:00,
2013-03-22 01:41:00,20.7,18.7,29.05,SSE,157,0.0,4.0,92,0.00,,,0.00,Weather View 32 v70,2013-03-22 05:41:00,
2013-03-22 01:46:00,20.4,17.7,29.05,SSE,157,1.0,4.0,89,0.00,,,0.00,Weather View 32 v70,2013-03-22 05:46:00,
2013-03-22 01:51:00,20.2,17.7,29.05,SSE,157,1.0,4.0,90,0.00,,,0.00,Weather View 32 v70,2013-03-22 05:51:00,
2013-03-22 01:56:00,20.1,17.9,29.05,SSE,157,0.0,4.0,91,0.00,,,0.00,Weather View 32 v70,2013-03-22 05:56:00,
2013-03-22 02:02:00,20.1,17.6,29.05,SSE,157,2.0,4.0,90,0.00,,,0.00,Weather View 32 v70,2013-03-22 06:02:00,
2013-03-22 02:07:00,19.9,17.7,29.04,SSE,157,2.0,4.0,91,0.00,,,0.00,Weather View 32 v70,2013-03-22 06:07:00,
2013-03-22 02:12:00,20.1,18.4,29.04,SE,135,1.0,4.0,93,0.00,,,0.00,Weather View 32 v70,2013-03-22 06:12:00,
2013-03-22 02:17:00,20.4,18.4,29.04,SSE,157,2.0,4.0,92,0.00,,,0.00,Weather View 32 v70,2013-03-22 06:17:00,
2013-03-22 02:22:00,20.9,18.7,29.04,SE,135,0.0,4.0,91,0.00,,,0.00,Weather View 32 v70,2013-03-22 06:22:00,
2013-03-22 02:27:00,20.9,18.4,29.03,SSE,157,0.0,4.0,90,0.00,,,0.00,Weather View 32 v70,2013-03-22 06:27:00,
2013-03-22 02:32:00,20.3,17.8,29.04,SSE,157,0.0,3.0,90,0.00,,,0.00,Weather View 32 v70,2013-03-22 06:32:00,
2013-03-22 02:37:00,19.5,17.0,29.04,SSE,157,0.0,3.0,90,0.00,,,0.00,Weather View 32 v70,2013-03-22 06:37:00,
2013-03-22 02:42:00,19.1,16.7,29.04,SSE,157,0.0,3.0,90,0.00,,,0.00,Weather View 32 v70,2013-03-22 06:42:00,
2013-03-22 02:47:00,19.0,16.6,29.04,SSE,157,0.0,3.0,90,0.00,,,0.00,Weather View 32 v70,2013-03-22 06:47:00,
2013-03-22 02:52:00,19.1,16.9,29.04,SSE,157,0.0,3.0,91,0.00,,,0.00,Weather View 32 v70,2013-03-22 06:52:00,
2013-03-22 02:57:00,19.1,16.9,29.04,SSE,157,0.0,3.0,91,0.00,,,0.00,Weather View 32 v70,2013-03-22 06:57:00,
2013-03-22 03:02:00,19.1,17.2,29.04,North,360,1.0,6.0,92,0.00,,,0.00,Weather View 32 v70,2013-03-22 07:02:00,
2013-03-22 03:07:00,18.3,16.4,29.04,NNE,22,0.0,6.0,92,0.00,,,0.00,Weather View 32 v70,2013-03-22 07:07:00,
2013-03-22 03:12:00,17.6,16.4,29.04,SSE,157,3.0,6.0,95,0.00,,,0.00,Weather View 32 v70,2013-03-22 07:12:00,
2013-03-22 03:17:00,17.5,17.3,29.04,SSE,157,1.0,6.0,99,0.00,,,0.00,Weather View 32 v70,2013-03-22 07:17:00,
2013-03-22 03:22:00,18.0,18.0,29.04,SE,135,2.0,6.0,100,0.00,,,0.00,Weather View 32 v70,2013-03-22 07:22:00,
2013-03-22 03:27:00,18.4,18.2,29.04,SSE,157,0.0,6.0,99,0.00,,,0.00,Weather View 32 v70,2013-03-22 07:27:00,
2013-03-22 03:32:00,18.0,17.1,29.04,SSE,157,0.0,6.0,96,0.00,,,0.00,Weather View 32 v70,2013-03-22 07:32:00,
2013-03-22 03:37:00,17.7,17.0,29.04,SSE,157,0.0,6.0,97,0.00,,,0.00,Weather View 32 v70,2013-03-22 07:37:00,
2013-03-22 03:42:00,18.0,17.3,29.04,SSE,157,0.0,6.0,97,0.00,,,0.00,Weather View 32 v70,2013-03-22 07:42:00,
2013-03-22 03:47:00,17.7,16.5,29.04,SSE,157,0.0,6.0,95,0.00,,,0.00,Weather View 32 v70,2013-03-22 07:47:00,
2013-03-22 03:52:00,17.7,17.0,29.03,SE,135,0.0,6.0,97,0.00,,,0.00,Weather View 32 v70,2013-03-22 07:52:00,
2013-03-22 03:57:00,18.4,17.2,29.03,ESE,112,2.0,6.0,95,0.00,,,0.00,Weather View 32 v70,2013-03-22 07:57:00,
2013-03-22 04:02:00,18.9,17.0,29.03,ESE,112,4.0,6.0,92,0.00,,,0.00,Weather View 32 v70,2013-03-22 08:02:00,
2013-03-22 04:07:00,19.0,16.8,29.03,South,180,2.0,6.0,91,0.00,,,0.00,Weather View 32 v70,2013-03-22 08:07:00,
2013-03-22 04:12:00,18.2,16.3,29.03,South,180,1.0,6.0,92,0.00,,,0.00,Weather View 32 v70,2013-03-22 08:12:00,
2013-03-22 04:17:00,18.6,16.7,29.03,SSE,157,0.0,6.0,92,0.00,,,0.00,Weather View 32 v70,2013-03-22 08:17:00,
2013-03-22 04:22:00,18.1,15.9,29.03,SE,135,1.0,6.0,91,0.00,,,0.00,Weather View 32 v70,2013-03-22 08:22:00,
2013-03-22 04:27:00,18.4,17.2,29.03,SE,135,5.0,6.0,95,0.00,,,0.00,Weather View 32 v70,2013-03-22 08:27:00,
2013-03-22 04:32:00,19.3,16.9,29.03,East,90,2.0,6.0,90,0.00,,,0.00,Weather View 32 v70,2013-03-22 08:32:00,
2013-03-22 04:37:00,19.5,16.8,29.03,SSE,157,1.0,6.0,89,0.00,,,0.00,Weather View 32 v70,2013-03-22 08:37:00,
2013-03-22 04:42:00,19.5,16.5,29.03,SSE,157,3.0,6.0,88,0.00,,,0.00,Weather View 32 v70,2013-03-22 08:42:00,
2013-03-22 04:47:00,19.9,16.9,29.03,SE,135,6.0,6.0,88,0.00,,,0.00,Weather View 32 v70,2013-03-22 08:47:00,
2013-03-22 04:52:00,20.1,17.1,29.03,ESE,112,3.0,10.0,88,0.00,,,0.00,Weather View 32 v70,2013-03-22 08:52:00,
2013-03-22 04:57:00,20.4,17.2,29.03,ESE,112,3.0,10.0,87,0.00,,,0.00,Weather View 32 v70,2013-03-22 08:57:00,
2013-03-22 05:02:00,20.5,17.2,29.03,ESE,112,3.0,10.0,87,0.00,,,0.00,Weather View 32 v70,2013-03-22 09:02:00,
2013-03-22 05:07:00,20.2,17.2,29.03,SE,135,2.0,10.0,88,0.00,,,0.00,Weather View 32 v70,2013-03-22 09:07:00,
2013-03-22 05:13:00,19.9,16.9,29.04,SE,135,4.0,10.0,88,0.00,,,0.00,Weather View 32 v70,2013-03-22 09:13:00,
2013-03-22 05:18:00,19.9,17.2,29.04,ESE,112,4.0,10.0,89,0.00,,,0.00,Weather View 32 v70,2013-03-22 09:18:00,
2013-03-22 05:23:00,20.0,17.3,29.04,ESE,112,1.0,10.0,89,0.00,,,0.00,Weather View 32 v70,2013-03-22 09:23:00,
2013-03-22 05:28:00,19.8,17.1,29.04,ESE,112,1.0,10.0,89,0.00,,,0.00,Weather View 32 v70,2013-03-22 09:28:00,
2013-03-22 05:33:00,19.4,16.9,29.04,SE,135,1.0,10.0,90,0.00,,,0.00,Weather View 32 v70,2013-03-22 09:33:00,
2013-03-22 05:38:00,19.0,16.6,29.04,SSE,157,1.0,10.0,90,0.00,,,0.00,Weather View 32 v70,2013-03-22 09:38:00,
2013-03-22 05:43:00,18.6,16.7,29.04,SSE,157,4.0,10.0,92,0.00,,,0.00,Weather View 32 v70,2013-03-22 09:43:00,
2013-03-22 05:48:00,18.4,16.7,29.04,ESE,112,1.0,10.0,93,0.00,,,0.00,Weather View 32 v70,2013-03-22 09:48:00,
2013-03-22 05:53:00,18.9,17.7,29.04,ESE,112,2.0,10.0,95,0.00,,,0.00,Weather View 32 v70,2013-03-22 09:53:00,
2013-03-22 05:58:00,19.0,17.8,29.04,ESE,112,0.0,10.0,95,0.00,,,0.00,Weather View 32 v70,2013-03-22 09:58:00,
2013-03-22 06:03:00,19.1,17.4,29.04,SSE,157,0.0,7.0,93,0.00,,,0.00,Weather View 32 v70,2013-03-22 10:03:00,
2013-03-22 06:08:00,19.0,17.3,29.04,SSE,157,0.0,7.0,93,0.00,,,0.00,Weather View 32 v70,2013-03-22 10:08:00,
2013-03-22 06:13:00,18.5,16.6,29.04,WNW,292,0.0,7.0,92,0.00,,,0.00,Weather View 32 v70,2013-03-22 10:13:00,
2013-03-22 06:18:00,17.6,15.9,29.04,West,270,0.0,7.0,93,0.00,,,0.00,Weather View 32 v70,2013-03-22 10:18:00,
2013-03-22 06:23:00,16.7,15.3,29.04,WSW,247,0.0,7.0,94,0.00,,,0.00,Weather View 32 v70,2013-03-22 10:23:00,
2013-03-22 06:28:00,16.2,14.8,29.05,SSE,157,0.0,7.0,94,0.00,,,0.00,Weather View 32 v70,2013-03-22 10:28:00,
2013-03-22 06:33:00,16.2,15.7,29.05,SSE,157,0.0,7.0,98,0.00,,,0.00,Weather View 32 v70,2013-03-22 10:33:00,
2013-03-22 06:38:00,15.9,15.2,29.04,SSE,157,0.0,7.0,97,0.00,,,0.00,Weather View 32 v70,2013-03-22 10:38:00,
2013-03-22 06:43:00,15.6,15.1,29.05,South,180,0.0,7.0,98,0.00,,,0.00,Weather View 32 v70,2013-03-22 10:43:00,
2013-03-22 06:48:00,15.8,15.8,29.05,West,270,0.0,7.0,100,0.00,,,0.00,Weather View 32 v70,2013-03-22 10:48:00,
2013-03-22 06:53:00,15.3,14.4,29.05,South,180,0.0,7.0,96,0.00,,,0.00,Weather View 32 v70,2013-03-22 10:53:00,
2013-03-22 06:58:00,15.4,15.4,29.05,ESE,112,0.0,7.0,100,0.00,,,0.00,Weather View 32 v70,2013-03-22 10:58:00,
2013-03-22 07:03:00,15.6,15.6,29.05,ESE,112,0.0,6.0,100,0.00,,,0.00,Weather View 32 v70,2013-03-22 11:03:00,
2013-03-22 07:08:00,16.4,16.4,29.05,ESE,112,0.0,6.0,100,0.00,,,0.00,Weather View 32 v70,2013-03-22 11:08:00,
2013-03-22 07:13:00,16.8,16.8,29.04,SSE,157,0.0,6.0,100,0.00,,,0.00,Weather View 32 v70,2013-03-22 11:13:00,
2013-03-22 07:18:00,16.6,16.1,29.04,SSE,157,0.0,3.0,98,0.00,,,0.00,Weather View 32 v70,2013-03-22 11:18:00,
2013-03-22 07:23:00,16.4,15.7,29.04,SSW,202,0.0,3.0,97,0.00,,,0.00,Weather View 32 v70,2013-03-22 11:23:00,
2013-03-22 07:28:00,16.4,15.5,29.04,SSW,202,0.0,3.0,96,0.00,,,0.00,Weather View 32 v70,2013-03-22 11:28:00,
2013-03-22 07:33:00,16.6,16.1,29.04,SSE,157,0.0,3.0,98,0.00,,,0.00,Weather View 32 v70,2013-03-22 11:33:00,
2013-03-22 07:38:00,18.6,18.6,29.04,SSE,157,0.0,3.0,100,0.00,,,0.00,Weather View 32 v70,2013-03-22 11:38:00,
2013-03-22 07:43:00,20.0,19.8,29.04,SSE,157,0.0,3.0,99,0.00,,,0.00,Weather View 32 v70,2013-03-22 11:43:00,
2013-03-22 07:48:00,20.2,19.0,29.05,SSE,157,0.0,2.0,95,0.00,,,0.00,Weather View 32 v70,2013-03-22 11:48:00,
2013-03-22 07:53:00,20.4,19.4,29.05,SSE,157,0.0,2.0,96,0.00,,,0.00,Weather View 32 v70,2013-03-22 11:53:00,
2013-03-22 07:58:00,21.1,20.1,29.04,SSE,157,0.0,2.0,96,0.00,,,0.00,Weather View 32 v70,2013-03-22 11:58:00,
2013-03-22 08:03:00,22.6,21.1,29.04,SSE,157,0.0,2.0,94,0.00,,,0.00,Weather View 32 v70,2013-03-22 12:03:00,
2013-03-22 08:08:00,23.3,21.1,29.04,West,270,0.0,2.0,91,0.00,,,0.00,Weather View 32 v70,2013-03-22 12:08:00,
2013-03-22 08:13:00,24.0,21.2,29.05,West,270,0.0,2.0,89,0.00,,,0.00,Weather View 32 v70,2013-03-22 12:13:00,
2013-03-22 08:18:00,25.4,22.3,29.05,West,270,0.0,0.0,88,0.00,,,0.00,Weather View 32 v70,2013-03-22 12:18:00,
2013-03-22 08:23:00,27.6,24.2,29.03,West,270,0.0,0.0,87,0.00,,,0.00,Weather View 32 v70,2013-03-22 12:23:00,
2013-03-22 08:28:00,28.9,24.7,29.03,West,270,0.0,0.0,84,0.00,,,0.00,Weather View 32 v70,2013-03-22 12:28:00,
2013-03-22 08:33:00,28.1,20.2,29.04,WNW,292,0.0,0.0,72,0.00,,,0.00,Weather View 32 v70,2013-03-22 12:33:00,
2013-03-22 08:39:00,28.0,19.8,29.04,NW,315,0.0,0.0,71,0.00,,,0.00,Weather View 32 v70,2013-03-22 12:39:00,
2013-03-22 08:44:00,29.2,22.3,29.04,NW,315,0.0,0.0,75,0.00,,,0.00,Weather View 32 v70,2013-03-22 12:44:00,
2013-03-22 08:49:00,30.8,23.8,29.04,NW,315,0.0,0.0,75,0.00,,,0.00,Weather View 32 v70,2013-03-22 12:49:00,
2013-03-22 08:54:00,32.4,24.7,29.03,NW,315,0.0,0.0,73,0.00,,,0.00,Weather View 32 v70,2013-03-22 12:54:00,
2013-03-22 08:59:00,33.2,25.8,29.03,NW,315,0.0,0.0,74,0.00,,,0.00,Weather View 32 v70,2013-03-22 12:59:00,
2013-03-22 09:04:00,34.6,26.8,29.03,NW,315,0.0,0.0,73,0.00,,,0.00,Weather View 32 v70,2013-03-22 13:04:00,
2013-03-22 09:09:00,31.1,18.8,29.05,ESE,112,7.0,10.0,60,0.00,,,0.00,Weather View 32 v70,2013-03-22 13:09:00,
2013-03-22 09:14:00,28.9,18.6,29.05,ESE,112,4.0,11.0,65,0.00,,,0.00,Weather View 32 v70,2013-03-22 13:14:00,
2013-03-22 09:19:00,28.7,19.5,29.06,ESE,112,7.0,12.0,68,0.00,,,0.00,Weather View 32 v70,2013-03-22 13:19:00,
2013-03-22 09:24:00,27.4,18.9,29.06,South,180,4.0,12.0,70,0.00,,,0.00,Weather View 32 v70,2013-03-22 13:24:00,
2013-03-22 09:29:00,27.2,19.0,29.06,SE,135,2.0,12.0,71,0.00,,,0.00,Weather View 32 v70,2013-03-22 13:29:00,
2013-03-22 09:34:00,28.2,19.7,29.07,WNW,292,1.0,12.0,70,0.00,,,0.00,Weather View 32 v70,2013-03-22 13:34:00,
2013-03-22 09:39:00,28.4,19.2,29.07,WNW,292,0.0,12.0,68,0.00,,,0.00,Weather View 32 v70,2013-03-22 13:39:00,
2013-03-22 09:44:00,29.7,20.8,29.06,WNW,292,0.0,12.0,69,0.00,,,0.00,Weather View 32 v70,2013-03-22 13:44:00,
2013-03-22 09:49:00,31.6,21.9,29.06,North,360,2.0,12.0,67,0.00,,,0.00,Weather View 32 v70,2013-03-22 13:49:00,
2013-03-22 09:54:00,32.0,19.7,29.06,NNW,337,3.0,12.0,60,0.00,,,0.00,Weather View 32 v70,2013-03-22 13:54:00,
2013-03-22 09:59:00,31.3,19.8,29.07,NW,315,1.0,12.0,62,0.00,,,0.00,Weather View 32 v70,2013-03-22 13:59:00,
2013-03-22 10:04:00,31.4,20.3,29.07,North,360,0.0,12.0,63,0.00,,,0.00,Weather View 32 v70,2013-03-22 14:04:00,
2013-03-22 10:09:00,31.5,20.3,29.06,SSE,157,0.0,12.0,63,0.00,,,0.00,Weather View 32 v70,2013-03-22 14:09:00,
2013-03-22 10:14:00,32.0,19.7,29.05,WNW,292,0.0,12.0,60,0.00,,,0.00,Weather View 32 v70,2013-03-22 14:14:00,
2013-03-22 10:19:00,32.7,19.9,29.05,ENE,67,0.0,12.0,59,0.00,,,0.00,Weather View 32 v70,2013-03-22 14:19:00,
2013-03-22 10:24:00,33.0,19.4,29.05,SSE,157,0.0,12.0,57,0.00,,,0.00,Weather View 32 v70,2013-03-22 14:24:00,
2013-03-22 10:29:00,34.1,20.9,29.05,SSE,157,1.0,12.0,58,0.00,,,0.00,Weather View 32 v70,2013-03-22 14:29:00,
2013-03-22 10:34:00,33.9,19.0,29.05,ENE,67,7.0,8.0,54,0.00,,,0.00,Weather View 32 v70,2013-03-22 14:34:00,
2013-03-22 10:39:00,33.3,19.3,29.05,SE,135,0.0,9.0,56,0.00,,,0.00,Weather View 32 v70,2013-03-22 14:39:00,
2013-03-22 10:44:00,33.8,19.3,29.05,East,90,5.0,9.0,55,0.00,,,0.00,Weather View 32 v70,2013-03-22 14:44:00,
2013-03-22 10:49:00,33.9,19.0,29.05,East,90,5.0,9.0,54,0.00,,,0.00,Weather View 32 v70,2013-03-22 14:49:00,
2013-03-22 10:54:00,34.2,18.8,29.05,ENE,67,6.0,9.0,53,0.00,,,0.00,Weather View 32 v70,2013-03-22 14:54:00,
2013-03-22 10:59:00,35.4,20.4,29.05,SSE,157,3.0,9.0,54,0.00,,,0.00,Weather View 32 v70,2013-03-22 14:59:00,
2013-03-22 11:04:00,34.4,19.5,29.05,WSW,247,5.0,9.0,54,0.00,,,0.00,Weather View 32 v70,2013-03-22 15:04:00,
2013-03-22 11:09:00,35.0,20.0,29.06,NNW,337,4.0,9.0,54,0.00,,,0.00,Weather View 32 v70,2013-03-22 15:09:00,
2013-03-22 11:14:00,36.9,21.3,29.06,North,360,3.0,9.0,53,0.00,,,0.00,Weather View 32 v70,2013-03-22 15:14:00,
2013-03-22 11:19:00,37.6,20.1,29.05,NNW,337,0.0,9.0,49,0.00,,,0.00,Weather View 32 v70,2013-03-22 15:19:00,
2013-03-22 11:25:00,36.6,19.7,29.05,WNW,292,3.0,9.0,50,0.00,,,0.00,Weather View 32 v70,2013-03-22 15:25:00,
2013-03-22 11:30:00,35.5,20.0,29.06,WNW,292,0.0,9.0,53,0.00,,,0.00,Weather View 32 v70,2013-03-22 15:30:00,
2013-03-22 11:35:00,37.2,20.7,29.05,SW,225,0.0,9.0,51,0.00,,,0.00,Weather View 32 v70,2013-03-22 15:35:00,
2013-03-22 11:40:00,38.4,22.7,29.05,NNW,337,0.0,9.0,53,0.00,,,0.00,Weather View 32 v70,2013-03-22 15:40:00,
2013-03-22 11:45:00,40.9,23.7,29.05,SSE,157,6.0,9.0,50,0.00,,,0.00,Weather View 32 v70,2013-03-22 15:45:00,
2013-03-22 11:50:00,41.7,23.4,29.04,North,360,2.0,9.0,48,0.00,,,0.00,Weather View 32 v70,2013-03-22 15:50:00,
2013-03-22 11:55:00,39.4,19.8,29.05,ESE,112,7.0,10.0,45,0.00,,,0.00,Weather View 32 v70,2013-03-22 15:55:00,
2013-03-22 12:00:00,39.9,20.3,29.05,East,90,6.0,10.0,45,0.00,,,0.00,Weather View 32 v70,2013-03-22 16:00:00,
2013-03-22 12:05:00,38.5,19.0,29.05,ESE,112,5.0,10.0,45,0.00,,,0.00,Weather View 32 v70,2013-03-22 16:05:00,
2013-03-22 12:10:00,38.5,19.0,29.05,SSE,157,0.0,10.0,45,0.00,,,0.00,Weather View 32 v70,2013-03-22 16:10:00,
2013-03-22 12:15:00,40.1,19.9,29.05,WNW,292,4.0,10.0,44,0.00,,,0.00,Weather View 32 v70,2013-03-22 16:15:00,
2013-03-22 12:20:00,39.4,19.8,29.05,NW,315,6.0,10.0,45,0.00,,,0.00,Weather View 32 v70,2013-03-22 16:20:00,
2013-03-22 12:25:00,38.0,19.5,29.05,WNW,292,5.0,10.0,47,0.00,,,0.00,Weather View 32 v70,2013-03-22 16:25:00,
2013-03-22 12:30:00,37.8,19.8,29.06,NW,315,3.0,10.0,48,0.00,,,0.00,Weather View 32 v70,2013-03-22 16:30:00,
2013-03-22 12:35:00,38.0,19.5,29.06,WNW,292,2.0,10.0,47,0.00,,,0.00,Weather View 32 v70,2013-03-22 16:35:00,
2013-03-22 12:40:00,38.4,19.9,29.06,NW,315,0.0,10.0,47,0.00,,,0.00,Weather View 32 v70,2013-03-22 16:40:00,
2013-03-22 12:45:00,39.9,21.3,29.06,NW,315,4.0,10.0,47,0.00,,,0.00,Weather View 32 v70,2013-03-22 16:45:00,
2013-03-22 12:50:00,39.3,19.7,29.06,WNW,292,4.0,10.0,45,0.00,,,0.00,Weather View 32 v70,2013-03-22 16:50:00,
2013-03-22 12:55:00,38.0,18.5,29.06,West,270,2.0,10.0,45,0.00,,,0.00,Weather View 32 v70,2013-03-22 16:55:00,
2013-03-22 13:00:00,38.2,19.7,29.06,NNW,337,0.0,10.0,47,0.00,,,0.00,Weather View 32 v70,2013-03-22 17:00:00,
2013-03-22 13:05:00,37.8,19.8,29.06,WNW,292,6.0,8.0,48,0.00,,,0.00,Weather View 32 v70,2013-03-22 17:05:00,
2013-03-22 13:10:00,36.2,20.2,29.07,NW,315,6.0,10.0,52,0.00,,,0.00,Weather View 32 v70,2013-03-22 17:10:00,
2013-03-22 13:15:00,35.1,20.5,29.07,NW,315,7.0,10.0,55,0.00,,,0.00,Weather View 32 v70,2013-03-22 17:15:00,
2013-03-22 13:20:00,34.4,21.5,29.06,WNW,292,6.0,10.0,59,0.00,,,0.00,Weather View 32 v70,2013-03-22 17:20:00,
2013-03-22 13:25:00,33.9,21.9,29.06,WNW,292,7.0,10.0,61,0.00,,,0.00,Weather View 32 v70,2013-03-22 17:25:00,
2013-03-22 13:30:00,34.2,22.9,29.06,West,270,8.0,10.0,63,0.00,,,0.00,Weather View 32 v70,2013-03-22 17:30:00,
2013-03-22 13:35:00,35.1,22.6,29.06,WNW,292,5.0,10.0,60,0.00,,,0.00,Weather View 32 v70,2013-03-22 17:35:00,
2013-03-22 13:40:00,35.3,22.4,29.06,West,270,6.0,10.0,59,0.00,,,0.00,Weather View 32 v70,2013-03-22 17:40:00,
2013-03-22 13:45:00,35.2,21.9,29.06,West,270,5.0,10.0,58,0.00,,,0.00,Weather View 32 v70,2013-03-22 17:45:00,
2013-03-22 13:50:00,36.3,22.1,29.06,NNW,337,0.0,10.0,56,0.00,,,0.00,Weather View 32 v70,2013-03-22 17:50:00,
2013-03-22 13:55:00,38.0,21.9,29.05,North,360,1.0,10.0,52,0.00,,,0.00,Weather View 32 v70,2013-03-22 17:55:00,
2013-03-22 14:00:00,38.0,23.2,29.04,WNW,292,6.0,10.0,55,0.00,,,0.00,Weather View 32 v70,2013-03-22 18:00:00,
2013-03-22 14:05:00,36.9,24.3,29.04,NNE,22,4.0,10.0,60,0.00,,,0.00,Weather View 32 v70,2013-03-22 18:05:00,
2013-03-22 14:10:00,37.0,24.4,29.04,North,360,2.0,10.0,60,0.00,,,0.00,Weather View 32 v70,2013-03-22 18:10:00,
2013-03-22 14:15:00,38.0,24.5,29.04,NNE,22,0.0,10.0,58,0.00,,,0.00,Weather View 32 v70,2013-03-22 18:15:00,
2013-03-22 14:20:00,39.2,25.2,29.04,West,270,0.0,10.0,57,0.00,,,0.00,Weather View 32 v70,2013-03-22 18:20:00,
2013-03-22 14:25:00,40.3,25.4,29.04,NNW,337,4.0,10.0,55,0.00,,,0.00,Weather View 32 v70,2013-03-22 18:25:00,
2013-03-22 14:30:00,40.2,24.0,29.04,NNW,337,0.0,10.0,52,0.00,,,0.00,Weather View 32 v70,2013-03-22 18:30:00,
2013-03-22 14:35:00,41.0,23.8,29.04,WNW,292,5.0,10.0,50,0.00,,,0.00,Weather View 32 v70,2013-03-22 18:35:00,
2013-03-22 14:40:00,40.0,23.8,29.04,WNW,292,5.0,10.0,52,0.00,,,0.00,Weather View 32 v70,2013-03-22 18:40:00,
2013-03-22 14:45:00,39.2,23.0,29.04,NW,315,2.0,10.0,52,0.00,,,0.00,Weather View 32 v70,2013-03-22 18:45:00,
2013-03-22 14:50:00,38.8,23.1,29.04,NW,315,2.0,10.0,53,0.00,,,0.00,Weather View 32 v70,2013-03-22 18:50:00,
2013-03-22 14:55:00,38.4,23.2,29.04,WNW,292,6.0,10.0,54,0.00,,,0.00,Weather View 32 v70,2013-03-22 18:55:00,
2013-03-22 15:00:00,37.7,23.8,29.04,NNW,337,1.0,10.0,57,0.00,,,0.00,Weather View 32 v70,2013-03-22 19:00:00,
2013-03-22 15:05:00,38.3,24.0,29.04,NW,315,4.0,9.0,56,0.00,,,0.00,Weather View 32 v70,2013-03-22 19:05:00,
2013-03-22 15:10:00,38.1,23.3,29.04,WNW,292,0.0,9.0,55,0.00,,,0.00,Weather View 32 v70,2013-03-22 19:10:00,
2013-03-22 15:15:00,37.5,24.0,29.04,WNW,292,1.0,9.0,58,0.00,,,0.00,Weather View 32 v70,2013-03-22 19:15:00,
2013-03-22 15:20:00,36.4,24.6,29.06,NW,315,7.0,7.0,62,0.00,,,0.00,Weather View 32 v70,2013-03-22 19:20:00,
2013-03-22 15:25:00,36.1,25.1,29.06,NW,315,5.0,8.0,64,0.00,,,0.00,Weather View 32 v70,2013-03-22 19:25:00,
2013-03-22 15:30:00,36.8,25.4,29.06,NW,315,2.0,8.0,63,0.00,,,0.00,Weather View 32 v70,2013-03-22 19:30:00,
2013-03-22 15:35:00,37.4,25.2,29.05,WNW,292,3.0,8.0,61,0.00,,,0.00,Weather View 32 v70,2013-03-22 19:35:00,
2013-03-22 15:40:00,38.4,25.7,29.05,NW,315,5.0,8.0,60,0.00,,,0.00,Weather View 32 v70,2013-03-22 19:40:00,
2013-03-22 15:45:00,37.7,26.2,29.05,WNW,292,6.0,8.0,63,0.00,,,0.00,Weather View 32 v70,2013-03-22 19:45:00,
2013-03-22 15:50:00,35.8,25.5,29.06,West,270,2.0,8.0,66,0.00,,,0.00,Weather View 32 v70,2013-03-22 19:50:00,
2013-03-22 15:55:00,35.6,25.4,29.06,WSW,247,3.0,8.0,66,0.00,,,0.00,Weather View 32 v70,2013-03-22 19:55:00,
2013-03-22 16:00:00,35.4,25.5,29.06,WNW,292,6.0,8.0,67,0.00,,,0.00,Weather View 32 v70,2013-03-22 20:00:00,
2013-03-22 16:05:00,34.6,25.8,29.06,West,270,2.0,8.0,70,0.00,,,0.00,Weather View 32 v70,2013-03-22 20:05:00,
2013-03-22 16:10:00,35.1,25.9,29.06,NW,315,1.0,8.0,69,0.00,,,0.00,Weather View 32 v70,2013-03-22 20:10:00,
2013-03-22 16:15:00,36.0,26.5,29.06,North,360,0.0,8.0,68,0.00,,,0.00,Weather View 32 v70,2013-03-22 20:15:00,
2013-03-22 16:20:00,37.1,26.4,29.05,WNW,292,2.0,8.0,65,0.00,,,0.00,Weather View 32 v70,2013-03-22 20:20:00,
2013-03-22 16:25:00,37.1,26.4,29.05,NNW,337,0.0,8.0,65,0.00,,,0.00,Weather View 32 v70,2013-03-22 20:25:00,
2013-03-22 16:30:00,36.8,26.1,29.05,WNW,292,3.0,8.0,65,0.00,,,0.00,Weather View 32 v70,2013-03-22 20:30:00,
2013-03-22 16:35:00,35.4,26.2,29.06,NW,315,2.0,8.0,69,0.00,,,0.00,Weather View 32 v70,2013-03-22 20:35:00,
2013-03-22 16:40:00,34.4,26.3,29.06,WNW,292,5.0,8.0,72,0.00,,,0.00,Weather View 32 v70,2013-03-22 20:40:00,
2013-03-22 16:45:00,34.0,26.6,29.06,West,270,0.0,8.0,74,0.00,,,0.00,Weather View 32 v70,2013-03-22 20:45:00,
2013-03-22 16:50:00,34.1,26.7,29.06,WNW,292,1.0,8.0,74,0.00,,,0.00,Weather View 32 v70,2013-03-22 20:50:00,
2013-03-22 16:55:00,34.3,27.2,29.06,WNW,292,2.0,8.0,75,0.00,,,0.00,Weather View 32 v70,2013-03-22 20:55:00,
2013-03-22 17:00:00,34.3,27.2,29.06,WNW,292,0.0,8.0,75,0.00,,,0.00,Weather View 32 v70,2013-03-22 21:00:00,
2013-03-22 17:05:00,34.9,27.8,29.06,WNW,292,2.0,8.0,75,0.00,,,0.00,Weather View 32 v70,2013-03-22 21:05:00,
2013-03-22 17:10:00,35.0,27.2,29.06,NW,315,0.0,8.0,73,0.00,,,0.00,Weather View 32 v70,2013-03-22 21:10:00,
2013-03-22 17:15:00,35.9,28.1,29.06,NNW,337,2.0,7.0,73,0.00,,,0.00,Weather View 32 v70,2013-03-22 21:15:00,
2013-03-22 17:20:00,35.5,27.7,29.06,WNW,292,6.0,7.0,73,0.00,,,0.00,Weather View 32 v70,2013-03-22 21:20:00,
2013-03-22 17:25:00,34.7,27.6,29.06,West,270,2.0,7.0,75,0.00,,,0.00,Weather View 32 v70,2013-03-22 21:25:00,
2013-03-22 17:30:00,34.3,27.2,29.07,WNW,292,4.0,6.0,75,0.00,,,0.00,Weather View 32 v70,2013-03-22 21:30:00,
2013-03-22 17:35:00,34.2,27.1,29.07,WNW,292,2.0,6.0,75,0.00,,,0.00,Weather View 32 v70,2013-03-22 21:35:00,
2013-03-22 17:40:00,33.9,27.1,29.07,WNW,292,0.0,6.0,76,0.00,,,0.00,Weather View 32 v70,2013-03-22 21:40:00,
2013-03-22 17:45:00,33.8,27.0,29.07,NW,315,1.0,6.0,76,0.00,,,0.00,Weather View 32 v70,2013-03-22 21:45:00,
2013-03-22 17:50:00,33.4,27.9,29.07,WNW,292,0.0,6.0,80,0.00,,,0.00,Weather View 32 v70,2013-03-22 21:50:00,
2013-03-22 17:55:00,32.8,28.5,29.07,WNW,292,0.0,6.0,84,0.00,,,0.00,Weather View 32 v70,2013-03-22 21:55:00,
2013-03-22 18:00:00,32.3,28.9,29.07,West,270,1.0,6.0,87,0.00,,,0.00,Weather View 32 v70,2013-03-22 22:00:00,
2013-03-22 18:05:00,32.0,29.4,29.07,WNW,292,1.0,6.0,90,0.00,,,0.00,Weather View 32 v70,2013-03-22 22:05:00,
2013-03-22 18:10:00,31.9,29.8,29.08,WNW,292,2.0,6.0,92,0.00,,,0.00,Weather View 32 v70,2013-03-22 22:10:00,
2013-03-22 18:15:00,31.7,29.6,29.09,West,270,2.0,6.0,92,0.00,,,0.00,Weather View 32 v70,2013-03-22 22:15:00,
2013-03-22 18:20:00,31.6,29.5,29.09,West,270,0.0,6.0,92,0.00,,,0.00,Weather View 32 v70,2013-03-22 22:20:00,
2013-03-22 18:25:00,31.6,29.5,29.09,NW,315,0.0,6.0,92,0.00,,,0.00,Weather View 32 v70,2013-03-22 22:25:00,
2013-03-22 18:30:00,31.5,29.4,29.10,NNW,337,1.0,5.0,92,0.00,,,0.00,Weather View 32 v70,2013-03-22 22:30:00,
2013-03-22 18:35:00,31.4,29.3,29.10,NW,315,2.0,5.0,92,0.00,,,0.00,Weather View 32 v70,2013-03-22 22:35:00,
2013-03-22 18:40:00,31.2,29.7,29.10,NW,315,2.0,5.0,94,0.00,,,0.00,Weather View 32 v70,2013-03-22 22:40:00,
2013-03-22 18:45:00,31.0,29.5,29.10,North,360,1.0,5.0,94,0.00,,,0.00,Weather View 32 v70,2013-03-22 22:45:00,
2013-03-22 18:50:00,30.7,29.2,29.11,NW,315,0.0,5.0,94,0.00,,,0.00,Weather View 32 v70,2013-03-22 22:50:00,
2013-03-22 18:55:00,30.4,28.9,29.11,NNE,22,0.0,5.0,94,0.00,,,0.00,Weather View 32 v70,2013-03-22 22:55:00,
2013-03-22 19:00:00,30.3,28.8,29.11,NW,315,5.0,5.0,94,0.00,,,0.00,Weather View 32 v70,2013-03-22 23:00:00,
2013-03-22 19:05:00,30.1,28.6,29.11,WNW,292,4.0,7.0,94,0.00,,,0.00,Weather View 32 v70,2013-03-22 23:05:00,
2013-03-22 19:10:00,30.0,28.2,29.12,NNW,337,0.0,7.0,93,0.00,,,0.00,Weather View 32 v70,2013-03-22 23:10:00,
2013-03-22 19:15:00,29.9,28.6,29.12,NNW,337,1.0,7.0,95,0.00,,,0.00,Weather View 32 v70,2013-03-22 23:15:00,
2013-03-22 19:20:00,29.8,29.1,29.12,WNW,292,5.0,7.0,97,0.00,,,0.00,Weather View 32 v70,2013-03-22 23:20:00,
2013-03-22 19:25:00,29.8,28.3,29.12,WNW,292,10.0,10.0,94,0.00,,,0.00,Weather View 32 v70,2013-03-22 23:25:00,
2013-03-22 19:30:00,29.9,25.7,29.12,WNW,292,7.0,13.0,84,0.00,,,0.00,Weather View 32 v70,2013-03-22 23:30:00,
2013-03-22 19:35:00,30.0,22.4,29.12,NW,315,9.0,16.0,73,0.00,,,0.00,Weather View 32 v70,2013-03-22 23:35:00,
2013-03-22 19:40:00,30.2,21.9,29.12,WNW,292,6.0,16.0,71,0.00,,,0.00,Weather View 32 v70,2013-03-22 23:40:00,
2013-03-22 19:45:00,30.1,22.2,29.12,WNW,292,5.0,16.0,72,0.00,,,0.00,Weather View 32 v70,2013-03-22 23:45:00,
2013-03-22 19:50:00,30.1,21.8,29.13,NW,315,6.0,16.0,71,0.00,,,0.00,Weather View 32 v70,2013-03-22 23:50:00,
2013-03-22 19:55:00,30.0,21.7,29.13,WNW,292,12.0,16.0,71,0.00,,,0.00,Weather View 32 v70,2013-03-22 23:55:00,
2013-03-22 20:00:00,30.0,21.1,29.13,WNW,292,16.0,17.0,69,0.00,,,0.00,Weather View 32 v70,2013-03-23 00:00:00,
2013-03-22 20:05:00,30.0,21.4,29.13,NW,315,9.0,17.0,70,0.00,,,0.00,Weather View 32 v70,2013-03-23 00:05:00,
2013-03-22 20:11:00,30.0,21.1,29.13,WNW,292,6.0,17.0,69,0.00,,,0.00,Weather View 32 v70,2013-03-23 00:11:00,
2013-03-22 20:16:00,30.0,21.1,29.13,NW,315,11.0,17.0,69,0.00,,,0.00,Weather View 32 v70,2013-03-23 00:16:00,
2013-03-22 20:21:00,29.9,21.0,29.14,West,270,6.0,17.0,69,0.00,,,0.00,Weather View 32 v70,2013-03-23 00:21:00,
2013-03-22 20:26:00,29.9,19.9,29.13,WNW,292,6.0,17.0,66,0.00,,,0.00,Weather View 32 v70,2013-03-23 00:26:00,
2013-03-22 20:31:00,29.9,19.9,29.13,NW,315,9.0,17.0,66,0.00,,,0.00,Weather View 32 v70,2013-03-23 00:31:00,
2013-03-22 20:36:00,29.8,20.2,29.13,WNW,292,10.0,17.0,67,0.00,,,0.00,Weather View 32 v70,2013-03-23 00:36:00,
2013-03-22 20:41:00,29.7,20.8,29.14,NW,315,6.0,17.0,69,0.00,,,0.00,Weather View 32 v70,2013-03-23 00:41:00,
2013-03-22 20:46:00,29.6,20.7,29.14,West,270,6.0,17.0,69,0.00,,,0.00,Weather View 32 v70,2013-03-23 00:46:00,
2013-03-22 20:51:00,29.5,20.9,29.14,WNW,292,6.0,17.0,70,0.00,,,0.00,Weather View 32 v70,2013-03-23 00:51:00,
2013-03-22 20:56:00,29.5,20.6,29.14,WNW,292,3.0,17.0,69,0.00,,,0.00,Weather View 32 v70,2013-03-23 00:56:00,
2013-03-22 21:01:00,29.4,21.2,29.14,WNW,292,2.0,17.0,71,0.00,,,0.00,Weather View 32 v70,2013-03-23 01:01:00,
2013-03-22 21:06:00,29.4,20.5,29.14,WNW,292,3.0,17.0,69,0.00,,,0.00,Weather View 32 v70,2013-03-23 01:06:00,
2013-03-22 21:11:00,29.4,20.5,29.14,West,270,9.0,17.0,69,0.00,,,0.00,Weather View 32 v70,2013-03-23 01:11:00,
2013-03-22 21:16:00,29.4,20.5,29.14,West,270,10.0,17.0,69,0.00,,,0.00,Weather View 32 v70,2013-03-23 01:16:00,
2013-03-22 21:21:00,29.4,20.5,29.14,WNW,292,12.0,17.0,69,0.00,,,0.00,Weather View 32 v70,2013-03-23 01:21:00,
2013-03-22 21:26:00,29.4,20.5,29.14,West,270,13.0,17.0,69,0.00,,,0.00,Weather View 32 v70,2013-03-23 01:26:00,
2013-03-22 21:31:00,29.4,19.8,29.14,WNW,292,15.0,17.0,67,0.00,,,0.00,Weather View 32 v70,2013-03-23 01:31:00,
2013-03-22 21:36:00,29.4,20.1,29.14,NW,315,11.0,18.0,68,0.00,,,0.00,Weather View 32 v70,2013-03-23 01:36:00,
2013-03-22 21:41:00,29.3,20.0,29.14,WNW,292,5.0,18.0,68,0.00,,,0.00,Weather View 32 v70,2013-03-23 01:41:00,
2013-03-22 21:46:00,29.2,20.0,29.14,WNW,292,6.0,18.0,68,0.00,,,0.00,Weather View 32 v70,2013-03-23 01:46:00,
2013-03-22 21:51:00,29.1,19.9,29.14,WNW,292,12.0,18.0,68,0.00,,,0.00,Weather View 32 v70,2013-03-23 01:51:00,
2013-03-22 21:56:00,29.1,19.9,29.14,WNW,292,6.0,18.0,68,0.00,,,0.00,Weather View 32 v70,2013-03-23 01:56:00,
2013-03-22 22:01:00,29.0,20.1,29.14,WNW,292,6.0,18.0,69,0.00,,,0.00,Weather View 32 v70,2013-03-23 02:01:00,
2013-03-22 22:06:00,29.0,20.1,29.14,West,270,8.0,18.0,69,0.00,,,0.00,Weather View 32 v70,2013-03-23 02:06:00,
2013-03-22 22:12:00,28.9,20.7,29.14,WNW,292,6.0,18.0,71,0.00,,,0.00,Weather View 32 v70,2013-03-23 02:12:00,
2013-03-22 22:17:00,28.9,20.7,29.14,WNW,292,0.0,18.0,71,0.00,,,0.00,Weather View 32 v70,2013-03-23 02:17:00,
2013-03-22 22:22:00,28.8,20.9,29.14,WNW,292,2.0,18.0,72,0.00,,,0.00,Weather View 32 v70,2013-03-23 02:22:00,
2013-03-22 22:27:00,28.8,20.9,29.14,WNW,292,4.0,18.0,72,0.00,,,0.00,Weather View 32 v70,2013-03-23 02:27:00,
2013-03-22 22:32:00,28.8,20.2,29.14,NNW,337,2.0,18.0,70,0.00,,,0.00,Weather View 32 v70,2013-03-23 02:32:00,
2013-03-22 22:37:00,28.9,21.0,29.14,WNW,292,7.0,18.0,72,0.00,,,0.00,Weather View 32 v70,2013-03-23 02:37:00,
2013-03-22 22:42:00,28.9,20.7,29.14,West,270,6.0,18.0,71,0.01,,,0.00,Weather View 32 v70,2013-03-23 02:42:00,
2013-03-22 22:47:00,28.9,21.0,29.14,WNW,292,3.0,13.0,72,0.01,,,0.00,Weather View 32 v70,2013-03-23 02:47:00,
2013-03-22 22:52:00,28.7,21.5,29.14,NNW,337,0.0,13.0,74,0.00,,,0.00,Weather View 32 v70,2013-03-23 02:52:00,
2013-03-22 22:57:00,28.5,21.3,29.14,WSW,247,0.0,13.0,74,0.00,,,0.00,Weather View 32 v70,2013-03-23 02:57:00,
2013-03-22 23:02:00,28.4,21.2,29.14,WSW,247,0.0,11.0,74,0.00,,,0.00,Weather View 32 v70,2013-03-23 03:02:00,
2013-03-22 23:07:00,28.1,20.9,29.14,WSW,247,0.0,11.0,74,0.00,,,0.00,Weather View 32 v70,2013-03-23 03:07:00,
2013-03-22 23:12:00,27.8,20.6,29.14,WSW,247,0.0,11.0,74,0.00,,,0.00,Weather View 32 v70,2013-03-23 03:12:00,
2013-03-22 23:18:00,27.6,21.0,29.14,SE,135,0.0,10.0,76,0.00,,,0.00,Weather View 32 v70,2013-03-23 03:18:00,
2013-03-22 23:23:00,27.4,20.8,29.13,ESE,112,0.0,10.0,76,0.00,,,0.00,Weather View 32 v70,2013-03-23 03:23:00,
2013-03-22 23:28:00,27.3,21.0,29.13,ESE,112,0.0,10.0,77,0.00,,,0.00,Weather View 32 v70,2013-03-23 03:28:00,
2013-03-22 23:33:00,27.2,21.3,29.13,ESE,112,0.0,9.0,78,0.00,,,0.00,Weather View 32 v70,2013-03-23 03:33:00,
2013-03-22 23:38:00,27.1,21.2,29.13,ESE,112,0.0,9.0,78,0.01,,,0.00,Weather View 32 v70,2013-03-23 03:38:00,
2013-03-22 23:43:00,26.8,20.9,29.13,ESE,112,0.0,9.0,78,0.00,,,0.00,Weather View 32 v70,2013-03-23 03:43:00,
2013-03-22 23:48:00,26.8,21.2,29.13,SSE,157,0.0,7.0,79,0.00,,,0.00,Weather View 32 v70,2013-03-23 03:48:00,
2013-03-22 23:53:00,26.4,20.5,29.13,NNE,22,0.0,7.0,78,0.00,,,0.00,Weather View 32 v70,2013-03-23 03:53:00,
2013-03-22 23:58:00,26.6,21.0,29.13,NNE,22,0.0,7.0,79,0.00,,,0.00,Weather View 32 v70,2013-03-23 03:58:00,